sensor_id;sensor_type;location;lat;lon;timestamp;P1;durP1;ratioP1;P2;durP2;ratioP2
48122;SDS011;33907;47.426;18.906;2023-06-05T00:00:07;5.68;;;2.10;;
48122;SDS011;33907;47.426;18.906;2023-06-05T00:02:38;5.28;;;2.60;;
48122;SDS011;33907;47.426;18.906;2023-06-05T00:05:06;5.72;;;2.58;;
48122;SDS011;33907;47.426;18.906;2023-06-05T00:07:36;5.62;;;2.78;;
48122;SDS011;33907;47.426;18.906;2023-06-05T00:10:07;7.65;;;2.97;;
48122;SDS011;33907;47.426;18.906;2023-06-05T00:12:36;6.85;;;2.62;;
48122;SDS011;33907;47.426;18.906;2023-06-05T00:15:04;5.62;;;2.80;;
48122;SDS011;33907;47.426;18.906;2023-06-05T00:17:32;7.28;;;2.70;;
48122;SDS011;33907;47.426;18.906;2023-06-05T00:20:00;5.03;;;2.53;;
48122;SDS011;33907;47.426;18.906;2023-06-05T00:22:28;7.53;;;2.80;;
48122;SDS011;33907;47.426;18.906;2023-06-05T00:24:56;7.28;;;2.95;;
48122;SDS011;33907;47.426;18.906;2023-06-05T00:27:24;6.68;;;2.45;;
48122;SDS011;33907;47.426;18.906;2023-06-05T00:29:52;5.93;;;2.33;;
48122;SDS011;33907;47.426;18.906;2023-06-05T00:32:20;5.55;;;2.65;;
48122;SDS011;33907;47.426;18.906;2023-06-05T00:34:48;5.22;;;2.58;;
48122;SDS011;33907;47.426;18.906;2023-06-05T00:37:19;6.90;;;2.80;;
48122;SDS011;33907;47.426;18.906;2023-06-05T00:39:47;5.78;;;2.53;;
48122;SDS011;33907;47.426;18.906;2023-06-05T00:42:15;7.37;;;3.10;;
48122;SDS011;33907;47.426;18.906;2023-06-05T00:44:42;7.62;;;3.25;;
48122;SDS011;33907;47.426;18.906;2023-06-05T00:47:10;8.23;;;3.62;;
48122;SDS011;33907;47.426;18.906;2023-06-05T00:49:38;7.43;;;3.20;;
48122;SDS011;33907;47.426;18.906;2023-06-05T00:52:06;7.47;;;3.22;;
48122;SDS011;33907;47.426;18.906;2023-06-05T00:54:33;8.30;;;2.83;;
48122;SDS011;33907;47.426;18.906;2023-06-05T00:57:01;6.25;;;2.90;;
48122;SDS011;33907;47.426;18.906;2023-06-05T00:59:29;8.55;;;2.83;;
48122;SDS011;33907;47.426;18.906;2023-06-05T01:01:59;5.22;;;2.50;;
48122;SDS011;33907;47.426;18.906;2023-06-05T01:04:28;5.85;;;2.83;;
48122;SDS011;33907;47.426;18.906;2023-06-05T01:06:56;8.82;;;2.92;;
48122;SDS011;33907;47.426;18.906;2023-06-05T01:09:24;7.60;;;2.87;;
48122;SDS011;33907;47.426;18.906;2023-06-05T01:12:00;5.57;;;2.50;;
48122;SDS011;33907;47.426;18.906;2023-06-05T01:14:34;5.57;;;2.42;;
48122;SDS011;33907;47.426;18.906;2023-06-05T01:17:02;4.85;;;2.60;;
48122;SDS011;33907;47.426;18.906;2023-06-05T01:19:32;5.35;;;2.42;;
48122;SDS011;33907;47.426;18.906;2023-06-05T01:22:00;4.87;;;2.25;;
48122;SDS011;33907;47.426;18.906;2023-06-05T01:24:28;5.20;;;2.17;;
48122;SDS011;33907;47.426;18.906;2023-06-05T01:32:40;7.03;;;2.85;;
48122;SDS011;33907;47.426;18.906;2023-06-05T01:35:11;7.45;;;2.70;;
48122;SDS011;33907;47.426;18.906;2023-06-05T01:37:47;6.62;;;2.75;;
48122;SDS011;33907;47.426;18.906;2023-06-05T01:40:17;6.25;;;2.95;;
48122;SDS011;33907;47.426;18.906;2023-06-05T01:42:47;5.78;;;2.60;;
48122;SDS011;33907;47.426;18.906;2023-06-05T01:45:15;6.32;;;2.35;;
48122;SDS011;33907;47.426;18.906;2023-06-05T01:47:44;5.97;;;2.70;;
48122;SDS011;33907;47.426;18.906;2023-06-05T01:50:15;6.45;;;2.20;;
48122;SDS011;33907;47.426;18.906;2023-06-05T01:52:44;6.12;;;2.67;;
48122;SDS011;33907;47.426;18.906;2023-06-05T01:55:15;5.87;;;2.20;;
48122;SDS011;33907;47.426;18.906;2023-06-05T01:57:44;5.97;;;2.25;;
48122;SDS011;33907;47.426;18.906;2023-06-05T02:00:12;4.30;;;2.28;;
48122;SDS011;33907;47.426;18.906;2023-06-05T02:02:46;6.03;;;2.30;;
48122;SDS011;33907;47.426;18.906;2023-06-05T02:05:15;5.62;;;2.40;;
48122;SDS011;33907;47.426;18.906;2023-06-05T02:07:44;5.65;;;2.53;;
48122;SDS011;33907;47.426;18.906;2023-06-05T02:10:21;6.87;;;2.90;;
48122;SDS011;33907;47.426;18.906;2023-06-05T02:12:51;6.57;;;2.35;;
48122;SDS011;33907;47.426;18.906;2023-06-05T02:15:18;6.22;;;2.80;;
48122;SDS011;33907;47.426;18.906;2023-06-05T02:17:46;5.85;;;2.42;;
48122;SDS011;33907;47.426;18.906;2023-06-05T02:20:24;8.50;;;2.70;;
48122;SDS011;33907;47.426;18.906;2023-06-05T02:22:52;11.30;;;2.33;;
48122;SDS011;33907;47.426;18.906;2023-06-05T02:25:22;7.70;;;2.78;;
48122;SDS011;33907;47.426;18.906;2023-06-05T02:27:53;6.22;;;2.37;;
48122;SDS011;33907;47.426;18.906;2023-06-05T02:30:21;8.02;;;2.90;;
48122;SDS011;33907;47.426;18.906;2023-06-05T02:32:50;7.72;;;2.80;;
48122;SDS011;33907;47.426;18.906;2023-06-05T02:35:29;6.90;;;2.35;;
48122;SDS011;33907;47.426;18.906;2023-06-05T02:37:57;8.65;;;2.65;;
48122;SDS011;33907;47.426;18.906;2023-06-05T02:40:24;4.75;;;2.22;;
48122;SDS011;33907;47.426;18.906;2023-06-05T02:42:54;5.95;;;2.17;;
48122;SDS011;33907;47.426;18.906;2023-06-05T02:45:22;6.53;;;2.58;;
48122;SDS011;33907;47.426;18.906;2023-06-05T02:47:50;6.03;;;2.12;;
48122;SDS011;33907;47.426;18.906;2023-06-05T02:50:18;4.57;;;2.40;;
48122;SDS011;33907;47.426;18.906;2023-06-05T02:52:46;7.10;;;2.42;;
48122;SDS011;33907;47.426;18.906;2023-06-05T02:55:15;7.10;;;2.78;;
48122;SDS011;33907;47.426;18.906;2023-06-05T02:57:44;8.38;;;2.72;;
48122;SDS011;33907;47.426;18.906;2023-06-05T03:00:17;5.45;;;2.70;;
48122;SDS011;33907;47.426;18.906;2023-06-05T03:02:47;6.60;;;3.17;;
48122;SDS011;33907;47.426;18.906;2023-06-05T03:05:17;7.10;;;2.80;;
48122;SDS011;33907;47.426;18.906;2023-06-05T03:07:55;6.12;;;2.50;;
48122;SDS011;33907;47.426;18.906;2023-06-05T03:10:23;6.85;;;3.08;;
48122;SDS011;33907;47.426;18.906;2023-06-05T03:12:51;8.95;;;3.00;;
48122;SDS011;33907;47.426;18.906;2023-06-05T03:15:19;7.10;;;2.67;;
48122;SDS011;33907;47.426;18.906;2023-06-05T03:17:47;6.60;;;3.05;;
48122;SDS011;33907;47.426;18.906;2023-06-05T03:20:17;6.95;;;2.72;;
48122;SDS011;33907;47.426;18.906;2023-06-05T03:22:45;5.00;;;2.50;;
48122;SDS011;33907;47.426;18.906;2023-06-05T03:25:13;5.75;;;2.65;;
48122;SDS011;33907;47.426;18.906;2023-06-05T03:27:42;7.85;;;2.70;;
48122;SDS011;33907;47.426;18.906;2023-06-05T03:30:12;5.90;;;2.42;;
48122;SDS011;33907;47.426;18.906;2023-06-05T03:32:44;5.87;;;2.97;;
48122;SDS011;33907;47.426;18.906;2023-06-05T03:35:14;6.07;;;2.97;;
48122;SDS011;33907;47.426;18.906;2023-06-05T03:37:41;5.15;;;2.25;;
48122;SDS011;33907;47.426;18.906;2023-06-05T03:40:09;5.80;;;3.12;;
48122;SDS011;33907;47.426;18.906;2023-06-05T03:42:37;6.22;;;2.67;;
48122;SDS011;33907;47.426;18.906;2023-06-05T03:45:05;7.87;;;2.75;;
48122;SDS011;33907;47.426;18.906;2023-06-05T03:47:36;6.65;;;2.75;;
48122;SDS011;33907;47.426;18.906;2023-06-05T03:50:05;5.57;;;2.80;;
48122;SDS011;33907;47.426;18.906;2023-06-05T03:52:34;6.20;;;2.45;;
48122;SDS011;33907;47.426;18.906;2023-06-05T03:55:07;5.70;;;2.80;;
48122;SDS011;33907;47.426;18.906;2023-06-05T03:57:36;6.30;;;2.90;;
48122;SDS011;33907;47.426;18.906;2023-06-05T04:00:05;7.60;;;2.95;;
48122;SDS011;33907;47.426;18.906;2023-06-05T04:02:39;6.32;;;2.35;;
48122;SDS011;33907;47.426;18.906;2023-06-05T04:05:07;10.48;;;3.08;;
48122;SDS011;33907;47.426;18.906;2023-06-05T04:07:39;8.57;;;2.58;;
48122;SDS011;33907;47.426;18.906;2023-06-05T04:10:07;6.32;;;3.00;;
48122;SDS011;33907;47.426;18.906;2023-06-05T04:12:35;7.25;;;2.70;;
48122;SDS011;33907;47.426;18.906;2023-06-05T04:15:04;8.32;;;3.30;;
48122;SDS011;33907;47.426;18.906;2023-06-05T04:17:33;9.07;;;3.53;;
48122;SDS011;33907;47.426;18.906;2023-06-05T04:20:01;6.10;;;3.22;;
48122;SDS011;33907;47.426;18.906;2023-06-05T04:22:29;5.62;;;2.97;;
48122;SDS011;33907;47.426;18.906;2023-06-05T04:24:57;6.35;;;2.90;;
48122;SDS011;33907;47.426;18.906;2023-06-05T04:27:24;6.93;;;3.08;;
48122;SDS011;33907;47.426;18.906;2023-06-05T04:29:55;5.72;;;2.65;;
48122;SDS011;33907;47.426;18.906;2023-06-05T04:32:24;5.78;;;2.58;;
48122;SDS011;33907;47.426;18.906;2023-06-05T04:34:51;6.75;;;2.60;;
48122;SDS011;33907;47.426;18.906;2023-06-05T04:37:19;7.65;;;3.10;;
48122;SDS011;33907;47.426;18.906;2023-06-05T04:39:47;6.97;;;3.33;;
48122;SDS011;33907;47.426;18.906;2023-06-05T04:42:15;6.10;;;3.03;;
48122;SDS011;33907;47.426;18.906;2023-06-05T04:44:47;8.40;;;3.17;;
48122;SDS011;33907;47.426;18.906;2023-06-05T04:47:21;6.47;;;2.90;;
48122;SDS011;33907;47.426;18.906;2023-06-05T04:49:49;6.95;;;3.20;;
48122;SDS011;33907;47.426;18.906;2023-06-05T04:52:19;7.93;;;3.22;;
48122;SDS011;33907;47.426;18.906;2023-06-05T04:54:51;8.30;;;2.85;;
48122;SDS011;33907;47.426;18.906;2023-06-05T04:57:18;7.62;;;3.37;;
48122;SDS011;33907;47.426;18.906;2023-06-05T04:59:47;6.32;;;2.92;;
48122;SDS011;33907;47.426;18.906;2023-06-05T05:02:14;7.18;;;2.92;;
48122;SDS011;33907;47.426;18.906;2023-06-05T05:04:43;6.80;;;3.00;;
48122;SDS011;33907;47.426;18.906;2023-06-05T05:07:11;6.70;;;3.58;;
48122;SDS011;33907;47.426;18.906;2023-06-05T05:09:43;8.65;;;3.30;;
48122;SDS011;33907;47.426;18.906;2023-06-05T05:12:11;6.85;;;3.58;;
48122;SDS011;33907;47.426;18.906;2023-06-05T05:14:39;8.88;;;3.50;;
48122;SDS011;33907;47.426;18.906;2023-06-05T05:17:12;8.57;;;3.42;;
48122;SDS011;33907;47.426;18.906;2023-06-05T05:19:41;6.75;;;3.65;;
48122;SDS011;33907;47.426;18.906;2023-06-05T05:22:09;6.97;;;3.72;;
48122;SDS011;33907;47.426;18.906;2023-06-05T05:24:37;9.40;;;3.58;;
48122;SDS011;33907;47.426;18.906;2023-06-05T05:27:04;8.60;;;3.65;;
48122;SDS011;33907;47.426;18.906;2023-06-05T05:29:32;7.07;;;2.97;;
48122;SDS011;33907;47.426;18.906;2023-06-05T05:32:01;8.63;;;3.50;;
48122;SDS011;33907;47.426;18.906;2023-06-05T05:34:29;7.37;;;3.58;;
48122;SDS011;33907;47.426;18.906;2023-06-05T05:36:57;8.45;;;3.75;;
48122;SDS011;33907;47.426;18.906;2023-06-05T05:39:25;8.88;;;3.78;;
48122;SDS011;33907;47.426;18.906;2023-06-05T05:41:52;14.00;;;4.12;;
48122;SDS011;33907;47.426;18.906;2023-06-05T05:44:20;10.13;;;3.80;;
48122;SDS011;33907;47.426;18.906;2023-06-05T05:46:48;6.22;;;3.55;;
48122;SDS011;33907;47.426;18.906;2023-06-05T05:49:15;8.40;;;3.25;;
48122;SDS011;33907;47.426;18.906;2023-06-05T05:51:43;9.23;;;4.32;;
48122;SDS011;33907;47.426;18.906;2023-06-05T05:54:10;6.70;;;3.35;;
48122;SDS011;33907;47.426;18.906;2023-06-05T05:56:38;6.18;;;3.33;;
48122;SDS011;33907;47.426;18.906;2023-06-05T05:59:05;12.68;;;3.70;;
48122;SDS011;33907;47.426;18.906;2023-06-05T06:01:33;9.10;;;3.95;;
48122;SDS011;33907;47.426;18.906;2023-06-05T06:04:01;7.43;;;3.67;;
48122;SDS011;33907;47.426;18.906;2023-06-05T06:06:30;9.20;;;3.80;;
48122;SDS011;33907;47.426;18.906;2023-06-05T06:08:58;9.27;;;4.00;;
48122;SDS011;33907;47.426;18.906;2023-06-05T06:11:25;11.02;;;4.25;;
48122;SDS011;33907;47.426;18.906;2023-06-05T06:13:54;11.93;;;3.80;;
48122;SDS011;33907;47.426;18.906;2023-06-05T06:16:21;9.48;;;4.45;;
48122;SDS011;33907;47.426;18.906;2023-06-05T06:18:49;7.95;;;3.50;;
48122;SDS011;33907;47.426;18.906;2023-06-05T06:21:17;7.07;;;3.95;;
48122;SDS011;33907;47.426;18.906;2023-06-05T06:23:45;9.75;;;4.70;;
48122;SDS011;33907;47.426;18.906;2023-06-05T06:26:13;9.52;;;4.03;;
48122;SDS011;33907;47.426;18.906;2023-06-05T06:28:41;8.15;;;3.65;;
48122;SDS011;33907;47.426;18.906;2023-06-05T06:31:09;10.50;;;4.55;;
48122;SDS011;33907;47.426;18.906;2023-06-05T06:33:38;15.45;;;4.03;;
48122;SDS011;33907;47.426;18.906;2023-06-05T06:36:06;10.00;;;4.37;;
48122;SDS011;33907;47.426;18.906;2023-06-05T06:38:33;10.20;;;3.87;;
48122;SDS011;33907;47.426;18.906;2023-06-05T06:41:01;9.15;;;4.07;;
48122;SDS011;33907;47.426;18.906;2023-06-05T06:43:28;9.43;;;4.68;;
48122;SDS011;33907;47.426;18.906;2023-06-05T06:45:56;13.48;;;4.60;;
48122;SDS011;33907;47.426;18.906;2023-06-05T06:48:24;10.15;;;4.78;;
48122;SDS011;33907;47.426;18.906;2023-06-05T06:50:51;9.05;;;4.80;;
48122;SDS011;33907;47.426;18.906;2023-06-05T06:53:19;8.13;;;4.78;;
48122;SDS011;33907;47.426;18.906;2023-06-05T06:55:47;10.50;;;4.47;;
48122;SDS011;33907;47.426;18.906;2023-06-05T06:58:14;9.23;;;4.80;;
48122;SDS011;33907;47.426;18.906;2023-06-05T07:00:42;15.07;;;4.57;;
48122;SDS011;33907;47.426;18.906;2023-06-05T07:03:10;12.27;;;4.47;;
48122;SDS011;33907;47.426;18.906;2023-06-05T07:05:37;9.93;;;5.00;;
48122;SDS011;33907;47.426;18.906;2023-06-05T07:08:05;8.70;;;5.00;;
48122;SDS011;33907;47.426;18.906;2023-06-05T07:10:33;8.93;;;4.68;;
48122;SDS011;33907;47.426;18.906;2023-06-05T07:13:00;8.27;;;4.20;;
48122;SDS011;33907;47.426;18.906;2023-06-05T07:15:27;10.45;;;4.37;;
48122;SDS011;33907;47.426;18.906;2023-06-05T07:17:55;10.65;;;4.37;;
48122;SDS011;33907;47.426;18.906;2023-06-05T07:20:23;18.20;;;4.87;;
48122;SDS011;33907;47.426;18.906;2023-06-05T07:22:50;8.52;;;4.57;;
48122;SDS011;33907;47.426;18.906;2023-06-05T07:25:18;9.90;;;4.87;;
48122;SDS011;33907;47.426;18.906;2023-06-05T07:27:48;12.43;;;5.10;;
48122;SDS011;33907;47.426;18.906;2023-06-05T07:30:15;10.10;;;5.32;;
48122;SDS011;33907;47.426;18.906;2023-06-05T07:32:43;12.23;;;4.75;;
48122;SDS011;33907;47.426;18.906;2023-06-05T07:35:12;12.40;;;4.62;;
48122;SDS011;33907;47.426;18.906;2023-06-05T07:37:41;11.82;;;4.53;;
48122;SDS011;33907;47.426;18.906;2023-06-05T07:40:09;14.63;;;4.55;;
48122;SDS011;33907;47.426;18.906;2023-06-05T07:42:37;12.80;;;5.03;;
48122;SDS011;33907;47.426;18.906;2023-06-05T07:45:04;11.55;;;5.60;;
48122;SDS011;33907;47.426;18.906;2023-06-05T07:47:33;12.13;;;5.47;;
48122;SDS011;33907;47.426;18.906;2023-06-05T07:50:01;15.73;;;5.05;;
48122;SDS011;33907;47.426;18.906;2023-06-05T07:52:31;12.00;;;5.18;;
48122;SDS011;33907;47.426;18.906;2023-06-05T07:54:59;13.60;;;5.10;;
48122;SDS011;33907;47.426;18.906;2023-06-05T07:57:26;13.00;;;5.65;;
48122;SDS011;33907;47.426;18.906;2023-06-05T07:59:56;12.43;;;6.05;;
48122;SDS011;33907;47.426;18.906;2023-06-05T08:02:24;11.95;;;5.75;;
48122;SDS011;33907;47.426;18.906;2023-06-05T08:04:52;12.40;;;6.18;;
48122;SDS011;33907;47.426;18.906;2023-06-05T08:07:20;13.20;;;6.00;;
48122;SDS011;33907;47.426;18.906;2023-06-05T08:09:47;17.30;;;5.65;;
48122;SDS011;33907;47.426;18.906;2023-06-05T08:12:15;10.85;;;5.07;;
48122;SDS011;33907;47.426;18.906;2023-06-05T08:14:42;15.95;;;5.93;;
48122;SDS011;33907;47.426;18.906;2023-06-05T08:17:10;9.57;;;4.72;;
48122;SDS011;33907;47.426;18.906;2023-06-05T08:19:38;11.20;;;4.50;;
48122;SDS011;33907;47.426;18.906;2023-06-05T08:22:06;11.75;;;4.28;;
48122;SDS011;33907;47.426;18.906;2023-06-05T08:24:33;11.52;;;5.30;;
48122;SDS011;33907;47.426;18.906;2023-06-05T08:27:02;12.85;;;4.72;;
48122;SDS011;33907;47.426;18.906;2023-06-05T08:29:29;10.90;;;4.28;;
48122;SDS011;33907;47.426;18.906;2023-06-05T08:31:57;15.57;;;4.43;;
48122;SDS011;33907;47.426;18.906;2023-06-05T08:34:25;9.57;;;3.92;;
48122;SDS011;33907;47.426;18.906;2023-06-05T08:36:53;11.73;;;5.07;;
48122;SDS011;33907;47.426;18.906;2023-06-05T08:39:20;10.10;;;4.25;;
48122;SDS011;33907;47.426;18.906;2023-06-05T08:41:49;11.70;;;4.57;;
48122;SDS011;33907;47.426;18.906;2023-06-05T08:44:19;9.27;;;3.67;;
48122;SDS011;33907;47.426;18.906;2023-06-05T08:46:46;12.02;;;3.90;;
48122;SDS011;33907;47.426;18.906;2023-06-05T08:49:14;8.93;;;3.80;;
48122;SDS011;33907;47.426;18.906;2023-06-05T08:51:44;7.62;;;3.25;;
48122;SDS011;33907;47.426;18.906;2023-06-05T08:54:12;6.75;;;3.15;;
48122;SDS011;33907;47.426;18.906;2023-06-05T09:28:54;9.27;;;3.28;;
48122;SDS011;33907;47.426;18.906;2023-06-05T09:31:22;8.32;;;3.30;;
48122;SDS011;33907;47.426;18.906;2023-06-05T09:33:54;11.88;;;4.15;;
48122;SDS011;33907;47.426;18.906;2023-06-05T09:36:23;9.60;;;3.00;;
48122;SDS011;33907;47.426;18.906;2023-06-05T09:38:51;8.10;;;2.97;;
48122;SDS011;33907;47.426;18.906;2023-06-05T09:41:18;7.43;;;2.80;;
48122;SDS011;33907;47.426;18.906;2023-06-05T09:43:46;7.57;;;2.40;;
48122;SDS011;33907;47.426;18.906;2023-06-05T09:46:17;8.25;;;2.30;;
48122;SDS011;33907;47.426;18.906;2023-06-05T09:48:57;9.20;;;2.92;;
48122;SDS011;33907;47.426;18.906;2023-06-05T09:51:26;8.75;;;2.47;;
48122;SDS011;33907;47.426;18.906;2023-06-05T09:53:54;6.12;;;2.33;;
48122;SDS011;33907;47.426;18.906;2023-06-05T09:56:24;11.48;;;2.53;;
48122;SDS011;33907;47.426;18.906;2023-06-05T09:58:53;7.18;;;2.33;;
48122;SDS011;33907;47.426;18.906;2023-06-05T10:01:24;6.28;;;2.97;;
48122;SDS011;33907;47.426;18.906;2023-06-05T10:03:59;11.60;;;2.90;;
48122;SDS011;33907;47.426;18.906;2023-06-05T10:06:27;9.40;;;2.60;;
48122;SDS011;33907;47.426;18.906;2023-06-05T10:08:56;6.22;;;2.90;;
48122;SDS011;33907;47.426;18.906;2023-06-05T10:11:24;6.00;;;2.42;;
48122;SDS011;33907;47.426;18.906;2023-06-05T10:13:55;7.47;;;2.60;;
48122;SDS011;33907;47.426;18.906;2023-06-05T10:16:27;6.55;;;2.40;;
48122;SDS011;33907;47.426;18.906;2023-06-05T10:18:56;8.82;;;2.22;;
48122;SDS011;33907;47.426;18.906;2023-06-05T10:21:26;7.68;;;2.87;;
48122;SDS011;33907;47.426;18.906;2023-06-05T10:23:57;5.70;;;2.30;;
48122;SDS011;33907;47.426;18.906;2023-06-05T10:40:54;6.45;;;2.75;;
48122;SDS011;33907;47.426;18.906;2023-06-05T10:45:51;8.82;;;3.10;;
48122;SDS011;33907;47.426;18.906;2023-06-05T10:51:37;7.60;;;2.50;;
48122;SDS011;33907;47.426;18.906;2023-06-05T10:54:11;8.02;;;2.33;;
48122;SDS011;33907;47.426;18.906;2023-06-05T10:59:20;8.15;;;2.50;;
48122;SDS011;33907;47.426;18.906;2023-06-05T11:17:43;6.62;;;2.50;;
48122;SDS011;33907;47.426;18.906;2023-06-05T11:25:25;5.45;;;2.58;;
48122;SDS011;33907;47.426;18.906;2023-06-05T11:30:38;7.60;;;2.80;;
48122;SDS011;33907;47.426;18.906;2023-06-05T11:35:49;6.53;;;2.50;;
48122;SDS011;33907;47.426;18.906;2023-06-05T11:38:19;6.12;;;2.62;;
48122;SDS011;33907;47.426;18.906;2023-06-05T11:40:52;7.72;;;2.47;;
48122;SDS011;33907;47.426;18.906;2023-06-05T11:43:21;10.13;;;3.87;;
48122;SDS011;33907;47.426;18.906;2023-06-05T11:45:49;9.65;;;2.90;;
48122;SDS011;33907;47.426;18.906;2023-06-05T11:48:21;4.85;;;2.50;;
48122;SDS011;33907;47.426;18.906;2023-06-05T11:50:52;8.20;;;2.75;;
48122;SDS011;33907;47.426;18.906;2023-06-05T11:53:25;5.20;;;2.80;;
48122;SDS011;33907;47.426;18.906;2023-06-05T11:55:54;11.07;;;3.05;;
48122;SDS011;33907;47.426;18.906;2023-06-05T11:58:34;6.55;;;3.15;;
48122;SDS011;33907;47.426;18.906;2023-06-05T12:01:11;7.62;;;2.95;;
48122;SDS011;33907;47.426;18.906;2023-06-05T12:03:42;5.82;;;2.60;;
48122;SDS011;33907;47.426;18.906;2023-06-05T12:06:10;6.10;;;2.62;;
48122;SDS011;33907;47.426;18.906;2023-06-05T12:08:40;7.95;;;2.40;;
48122;SDS011;33907;47.426;18.906;2023-06-05T12:11:19;6.28;;;2.70;;
48122;SDS011;33907;47.426;18.906;2023-06-05T12:13:49;7.07;;;2.75;;
48122;SDS011;33907;47.426;18.906;2023-06-05T12:16:18;5.68;;;2.85;;
48122;SDS011;33907;47.426;18.906;2023-06-05T12:18:46;5.97;;;2.58;;
48122;SDS011;33907;47.426;18.906;2023-06-05T12:21:32;8.45;;;2.72;;
48122;SDS011;33907;47.426;18.906;2023-06-05T12:24:00;5.05;;;2.53;;
48122;SDS011;33907;47.426;18.906;2023-06-05T12:26:29;5.45;;;2.40;;
48122;SDS011;33907;47.426;18.906;2023-06-05T12:29:04;9.27;;;2.80;;
48122;SDS011;33907;47.426;18.906;2023-06-05T12:31:35;9.50;;;3.50;;
48122;SDS011;33907;47.426;18.906;2023-06-05T12:34:06;9.05;;;2.87;;
48122;SDS011;33907;47.426;18.906;2023-06-05T12:36:40;6.47;;;3.12;;
48122;SDS011;33907;47.426;18.906;2023-06-05T12:39:12;13.35;;;3.25;;
48122;SDS011;33907;47.426;18.906;2023-06-05T12:41:40;5.45;;;2.62;;
48122;SDS011;33907;47.426;18.906;2023-06-05T12:44:08;6.35;;;2.75;;
48122;SDS011;33907;47.426;18.906;2023-06-05T12:46:36;9.82;;;2.92;;
48122;SDS011;33907;47.426;18.906;2023-06-05T12:49:04;8.57;;;2.67;;
48122;SDS011;33907;47.426;18.906;2023-06-05T12:51:32;5.15;;;2.47;;
48122;SDS011;33907;47.426;18.906;2023-06-05T12:54:00;6.25;;;2.83;;
48122;SDS011;33907;47.426;18.906;2023-06-05T12:56:28;7.85;;;2.40;;
48122;SDS011;33907;47.426;18.906;2023-06-05T12:58:56;6.30;;;2.50;;
48122;SDS011;33907;47.426;18.906;2023-06-05T13:01:25;8.82;;;2.42;;
48122;SDS011;33907;47.426;18.906;2023-06-05T13:03:52;6.20;;;2.65;;
48122;SDS011;33907;47.426;18.906;2023-06-05T13:06:20;7.85;;;3.00;;
48122;SDS011;33907;47.426;18.906;2023-06-05T13:08:48;8.13;;;2.62;;
48122;SDS011;33907;47.426;18.906;2023-06-05T13:11:16;7.78;;;2.72;;
48122;SDS011;33907;47.426;18.906;2023-06-05T13:13:43;6.15;;;2.80;;
48122;SDS011;33907;47.426;18.906;2023-06-05T13:16:11;7.20;;;2.40;;
48122;SDS011;33907;47.426;18.906;2023-06-05T13:18:39;7.80;;;2.28;;
48122;SDS011;33907;47.426;18.906;2023-06-05T13:21:07;4.50;;;1.98;;
48122;SDS011;33907;47.426;18.906;2023-06-05T13:23:34;5.22;;;2.30;;
48122;SDS011;33907;47.426;18.906;2023-06-05T13:26:02;7.78;;;2.40;;
48122;SDS011;33907;47.426;18.906;2023-06-05T13:28:30;7.12;;;2.47;;
48122;SDS011;33907;47.426;18.906;2023-06-05T13:30:57;4.82;;;2.40;;
48122;SDS011;33907;47.426;18.906;2023-06-05T13:33:25;9.48;;;2.10;;
48122;SDS011;33907;47.426;18.906;2023-06-05T13:35:53;6.43;;;2.35;;
48122;SDS011;33907;47.426;18.906;2023-06-05T13:38:20;6.40;;;2.35;;
48122;SDS011;33907;47.426;18.906;2023-06-05T13:40:49;4.47;;;2.35;;
48122;SDS011;33907;47.426;18.906;2023-06-05T13:43:18;5.45;;;2.20;;
48122;SDS011;33907;47.426;18.906;2023-06-05T13:45:45;5.47;;;2.40;;
48122;SDS011;33907;47.426;18.906;2023-06-05T13:48:13;5.85;;;2.42;;
48122;SDS011;33907;47.426;18.906;2023-06-05T13:50:41;7.32;;;2.62;;
48122;SDS011;33907;47.426;18.906;2023-06-05T13:53:08;11.00;;;2.50;;
48122;SDS011;33907;47.426;18.906;2023-06-05T13:55:36;5.30;;;2.60;;
48122;SDS011;33907;47.426;18.906;2023-06-05T13:58:04;7.78;;;2.35;;
48122;SDS011;33907;47.426;18.906;2023-06-05T14:00:31;7.07;;;2.62;;
48122;SDS011;33907;47.426;18.906;2023-06-05T14:02:59;5.12;;;2.53;;
48122;SDS011;33907;47.426;18.906;2023-06-05T14:05:27;6.72;;;2.67;;
48122;SDS011;33907;47.426;18.906;2023-06-05T14:07:56;8.55;;;2.40;;
48122;SDS011;33907;47.426;18.906;2023-06-05T14:10:24;12.52;;;2.95;;
48122;SDS011;33907;47.426;18.906;2023-06-05T14:12:52;4.15;;;1.87;;
48122;SDS011;33907;47.426;18.906;2023-06-05T14:15:20;10.13;;;2.40;;
48122;SDS011;33907;47.426;18.906;2023-06-05T14:17:49;6.03;;;2.55;;
48122;SDS011;33907;47.426;18.906;2023-06-05T14:20:18;7.50;;;3.10;;
48122;SDS011;33907;47.426;18.906;2023-06-05T14:22:46;7.20;;;2.17;;
48122;SDS011;33907;47.426;18.906;2023-06-05T14:25:14;6.35;;;2.87;;
48122;SDS011;33907;47.426;18.906;2023-06-05T14:27:41;6.43;;;3.05;;
48122;SDS011;33907;47.426;18.906;2023-06-05T14:30:09;9.18;;;2.75;;
48122;SDS011;33907;47.426;18.906;2023-06-05T14:32:37;7.75;;;2.42;;
48122;SDS011;33907;47.426;18.906;2023-06-05T14:35:05;7.72;;;2.33;;
48122;SDS011;33907;47.426;18.906;2023-06-05T14:37:32;9.77;;;3.20;;
48122;SDS011;33907;47.426;18.906;2023-06-05T14:40:02;6.97;;;2.40;;
48122;SDS011;33907;47.426;18.906;2023-06-05T14:42:30;5.95;;;2.17;;
48122;SDS011;33907;47.426;18.906;2023-06-05T14:44:57;5.90;;;2.42;;
48122;SDS011;33907;47.426;18.906;2023-06-05T14:47:25;7.07;;;2.53;;
48122;SDS011;33907;47.426;18.906;2023-06-05T14:49:52;5.22;;;2.35;;
48122;SDS011;33907;47.426;18.906;2023-06-05T14:52:20;4.93;;;2.25;;
48122;SDS011;33907;47.426;18.906;2023-06-05T14:54:48;6.03;;;2.40;;
48122;SDS011;33907;47.426;18.906;2023-06-05T14:57:29;7.72;;;2.55;;
48122;SDS011;33907;47.426;18.906;2023-06-05T14:59:57;5.55;;;2.28;;
48122;SDS011;33907;47.426;18.906;2023-06-05T15:02:24;5.30;;;2.30;;
48122;SDS011;33907;47.426;18.906;2023-06-05T15:04:53;7.00;;;2.60;;
48122;SDS011;33907;47.426;18.906;2023-06-05T15:07:21;8.30;;;2.50;;
48122;SDS011;33907;47.426;18.906;2023-06-05T15:09:48;9.15;;;2.45;;
48122;SDS011;33907;47.426;18.906;2023-06-05T15:12:16;5.87;;;2.25;;
48122;SDS011;33907;47.426;18.906;2023-06-05T15:14:44;8.57;;;3.00;;
48122;SDS011;33907;47.426;18.906;2023-06-05T15:17:12;7.30;;;3.35;;
48122;SDS011;33907;47.426;18.906;2023-06-05T15:19:39;7.95;;;2.83;;
48122;SDS011;33907;47.426;18.906;2023-06-05T15:22:07;8.82;;;2.97;;
48122;SDS011;33907;47.426;18.906;2023-06-05T15:24:35;6.93;;;2.90;;
48122;SDS011;33907;47.426;18.906;2023-06-05T15:27:02;7.22;;;2.92;;
48122;SDS011;33907;47.426;18.906;2023-06-05T15:29:30;6.62;;;2.42;;
48122;SDS011;33907;47.426;18.906;2023-06-05T15:31:58;6.75;;;2.50;;
48122;SDS011;33907;47.426;18.906;2023-06-05T15:34:45;8.13;;;3.08;;
48122;SDS011;33907;47.426;18.906;2023-06-05T15:37:12;7.97;;;2.65;;
48122;SDS011;33907;47.426;18.906;2023-06-05T15:39:41;5.60;;;2.70;;
48122;SDS011;33907;47.426;18.906;2023-06-05T15:42:09;7.47;;;2.85;;
48122;SDS011;33907;47.426;18.906;2023-06-05T15:44:39;6.20;;;2.75;;
48122;SDS011;33907;47.426;18.906;2023-06-05T15:47:07;6.80;;;2.47;;
48122;SDS011;33907;47.426;18.906;2023-06-05T15:49:35;5.47;;;3.08;;
48122;SDS011;33907;47.426;18.906;2023-06-05T15:52:02;5.50;;;2.60;;
48122;SDS011;33907;47.426;18.906;2023-06-05T15:54:30;5.90;;;2.83;;
48122;SDS011;33907;47.426;18.906;2023-06-05T15:57:05;5.65;;;2.25;;
48122;SDS011;33907;47.426;18.906;2023-06-05T15:59:33;6.53;;;2.17;;
48122;SDS011;33907;47.426;18.906;2023-06-05T16:02:20;8.82;;;2.53;;
48122;SDS011;33907;47.426;18.906;2023-06-05T16:04:48;6.37;;;2.53;;
48122;SDS011;33907;47.426;18.906;2023-06-05T16:07:16;6.68;;;2.45;;
48122;SDS011;33907;47.426;18.906;2023-06-05T16:09:43;6.82;;;2.75;;